sensor_id;sensor_type;location;lat;lon;timestamp;P1;durP1;ratioP1;P2;durP2;ratioP2
8086;SDS011;4086;54.412;9.980;2022-12-08T00:02:11;3.47;;;3.00;;
8086;SDS011;4086;54.412;9.980;2022-12-08T00:04:38;3.73;;;2.70;;
8086;SDS011;4086;54.412;9.980;2022-12-08T00:07:18;3.50;;;2.87;;
8086;SDS011;4086;54.412;9.980;2022-12-08T00:10:03;3.50;;;3.10;;
8086;SDS011;4086;54.412;9.980;2022-12-08T00:12:31;3.20;;;2.80;;
8086;SDS011;4086;54.412;9.980;2022-12-08T00:14:57;3.50;;;2.90;;
8086;SDS011;4086;54.412;9.980;2022-12-08T00:17:23;3.83;;;2.70;;
8086;SDS011;4086;54.412;9.980;2022-12-08T00:19:50;7.17;;;3.53;;
8086;SDS011;4086;54.412;9.980;2022-12-08T00:22:16;3.30;;;2.30;;
8086;SDS011;4086;54.412;9.980;2022-12-08T00:24:43;6.53;;;2.97;;
8086;SDS011;4086;54.412;9.980;2022-12-08T00:27:13;2.80;;;2.27;;
8086;SDS011;4086;54.412;9.980;2022-12-08T00:29:42;9.07;;;2.90;;
8086;SDS011;4086;54.412;9.980;2022-12-08T00:32:08;3.43;;;2.00;;
8086;SDS011;4086;54.412;9.980;2022-12-08T00:34:34;2.33;;;1.67;;
8086;SDS011;4086;54.412;9.980;2022-12-08T00:37:01;2.57;;;1.50;;
8086;SDS011;4086;54.412;9.980;2022-12-08T00:39:27;3.97;;;2.00;;
8086;SDS011;4086;54.412;9.980;2022-12-08T00:41:53;1.20;;;1.20;;
8086;SDS011;4086;54.412;9.980;2022-12-08T00:44:39;1.40;;;1.30;;
8086;SDS011;4086;54.412;9.980;2022-12-08T00:47:06;1.40;;;1.30;;
8086;SDS011;4086;54.412;9.980;2022-12-08T00:49:32;1.30;;;1.20;;
8086;SDS011;4086;54.412;9.980;2022-12-08T00:51:59;2.03;;;1.70;;
8086;SDS011;4086;54.412;9.980;2022-12-08T00:54:25;4.80;;;1.60;;
8086;SDS011;4086;54.412;9.980;2022-12-08T00:56:52;3.93;;;1.80;;
8086;SDS011;4086;54.412;9.980;2022-12-08T00:59:18;2.33;;;1.73;;
8086;SDS011;4086;54.412;9.980;2022-12-08T01:01:46;1.77;;;1.67;;
8086;SDS011;4086;54.412;9.980;2022-12-08T01:04:13;3.13;;;1.40;;
8086;SDS011;4086;54.412;9.980;2022-12-08T01:06:41;1.87;;;1.40;;
8086;SDS011;4086;54.412;9.980;2022-12-08T01:09:08;2.40;;;1.30;;
8086;SDS011;4086;54.412;9.980;2022-12-08T01:11:34;1.67;;;1.10;;
8086;SDS011;4086;54.412;9.980;2022-12-08T01:14:01;2.30;;;1.40;;
8086;SDS011;4086;54.412;9.980;2022-12-08T01:16:29;1.67;;;1.57;;
8086;SDS011;4086;54.412;9.980;2022-12-08T01:18:59;1.40;;;1.30;;
8086;SDS011;4086;54.412;9.980;2022-12-08T01:21:25;1.37;;;1.27;;
8086;SDS011;4086;54.412;9.980;2022-12-08T01:23:52;1.80;;;1.23;;
8086;SDS011;4086;54.412;9.980;2022-12-08T01:26:19;1.27;;;1.00;;
8086;SDS011;4086;54.412;9.980;2022-12-08T01:28:46;1.83;;;1.00;;
8086;SDS011;4086;54.412;9.980;2022-12-08T01:31:13;1.20;;;1.20;;
8086;SDS011;4086;54.412;9.980;2022-12-08T01:33:41;2.07;;;0.90;;
8086;SDS011;4086;54.412;9.980;2022-12-08T01:36:13;1.20;;;1.10;;
8086;SDS011;4086;54.412;9.980;2022-12-08T01:38:44;0.97;;;0.97;;
8086;SDS011;4086;54.412;9.980;2022-12-08T01:41:12;1.80;;;1.27;;
8086;SDS011;4086;54.412;9.980;2022-12-08T01:43:43;1.10;;;1.00;;
8086;SDS011;4086;54.412;9.980;2022-12-08T01:46:13;0.80;;;0.80;;
8086;SDS011;4086;54.412;9.980;2022-12-08T01:48:39;1.00;;;1.00;;
8086;SDS011;4086;54.412;9.980;2022-12-08T01:51:05;0.90;;;0.90;;
8086;SDS011;4086;54.412;9.980;2022-12-08T01:53:33;0.90;;;0.90;;
8086;SDS011;4086;54.412;9.980;2022-12-08T01:56:01;0.70;;;0.70;;
8086;SDS011;4086;54.412;9.980;2022-12-08T01:58:31;0.90;;;0.90;;
8086;SDS011;4086;54.412;9.980;2022-12-08T02:01:00;0.63;;;0.63;;
8086;SDS011;4086;54.412;9.980;2022-12-08T02:03:27;0.90;;;0.90;;
8086;SDS011;4086;54.412;9.980;2022-12-08T02:05:56;0.70;;;0.70;;
8086;SDS011;4086;54.412;9.980;2022-12-08T02:08:23;0.70;;;0.70;;
8086;SDS011;4086;54.412;9.980;2022-12-08T02:10:52;0.57;;;0.57;;
8086;SDS011;4086;54.412;9.980;2022-12-08T02:13:19;0.70;;;0.57;;
8086;SDS011;4086;54.412;9.980;2022-12-08T02:15:48;0.30;;;0.30;;
8086;SDS011;4086;54.412;9.980;2022-12-08T02:18:26;1.03;;;0.57;;
8086;SDS011;4086;54.412;9.980;2022-12-08T02:21:01;0.37;;;0.37;;
8086;SDS011;4086;54.412;9.980;2022-12-08T02:23:31;0.47;;;0.47;;
8086;SDS011;4086;54.412;9.980;2022-12-08T02:26:09;0.40;;;0.40;;
8086;SDS011;4086;54.412;9.980;2022-12-08T02:28:54;0.37;;;0.37;;
8086;SDS011;4086;54.412;9.980;2022-12-08T02:31:34;0.50;;;0.50;;
8086;SDS011;4086;54.412;9.980;2022-12-08T02:36:52;0.73;;;0.40;;
8086;SDS011;4086;54.412;9.980;2022-12-08T02:39:26;0.30;;;0.30;;
8086;SDS011;4086;54.412;9.980;2022-12-08T02:41:55;0.47;;;0.47;;
8086;SDS011;4086;54.412;9.980;2022-12-08T02:44:26;1.27;;;0.40;;
8086;SDS011;4086;54.412;9.980;2022-12-08T02:46:57;1.13;;;0.50;;
8086;SDS011;4086;54.412;9.980;2022-12-08T02:49:28;0.40;;;0.40;;
8086;SDS011;4086;54.412;9.980;2022-12-08T02:52:02;0.43;;;0.40;;
8086;SDS011;4086;54.412;9.980;2022-12-08T02:54:30;0.83;;;0.47;;
8086;SDS011;4086;54.412;9.980;2022-12-08T02:57:01;0.40;;;0.40;;
8086;SDS011;4086;54.412;9.980;2022-12-08T02:59:41;0.83;;;0.33;;
8086;SDS011;4086;54.412;9.980;2022-12-08T03:02:21;0.53;;;0.40;;
8086;SDS011;4086;54.412;9.980;2022-12-08T03:04:56;1.03;;;0.30;;
8086;SDS011;4086;54.412;9.980;2022-12-08T03:07:27;1.77;;;0.80;;
8086;SDS011;4086;54.412;9.980;2022-12-08T03:09:59;1.30;;;0.30;;
8086;SDS011;4086;54.412;9.980;2022-12-08T03:12:29;0.87;;;0.47;;
8086;SDS011;4086;54.412;9.980;2022-12-08T03:14:59;0.77;;;0.70;;
8086;SDS011;4086;54.412;9.980;2022-12-08T03:17:30;1.23;;;0.47;;
8086;SDS011;4086;54.412;9.980;2022-12-08T03:19:58;1.70;;;0.70;;
8086;SDS011;4086;54.412;9.980;2022-12-08T03:22:27;0.67;;;0.67;;
8086;SDS011;4086;54.412;9.980;2022-12-08T03:24:54;2.57;;;0.90;;
8086;SDS011;4086;54.412;9.980;2022-12-08T03:27:22;3.43;;;1.00;;
8086;SDS011;4086;54.412;9.980;2022-12-08T03:29:50;1.17;;;1.00;;
8086;SDS011;4086;54.412;9.980;2022-12-08T03:32:19;0.70;;;0.70;;
8086;SDS011;4086;54.412;9.980;2022-12-08T03:34:49;0.80;;;0.80;;
8086;SDS011;4086;54.412;9.980;2022-12-08T03:37:17;1.43;;;0.77;;
8086;SDS011;4086;54.412;9.980;2022-12-08T03:39:43;2.23;;;0.70;;
8086;SDS011;4086;54.412;9.980;2022-12-08T03:42:10;0.70;;;0.70;;
8086;SDS011;4086;54.412;9.980;2022-12-08T03:44:37;1.23;;;0.80;;
8086;SDS011;4086;54.412;9.980;2022-12-08T03:47:03;1.77;;;0.77;;
8086;SDS011;4086;54.412;9.980;2022-12-08T03:49:30;0.70;;;0.70;;
8086;SDS011;4086;54.412;9.980;2022-12-08T03:51:56;0.50;;;0.50;;
8086;SDS011;4086;54.412;9.980;2022-12-08T03:54:24;0.53;;;0.50;;
8086;SDS011;4086;54.412;9.980;2022-12-08T03:56:50;0.50;;;0.50;;
8086;SDS011;4086;54.412;9.980;2022-12-08T03:59:16;0.50;;;0.50;;
8086;SDS011;4086;54.412;9.980;2022-12-08T04:01:43;0.70;;;0.70;;
8086;SDS011;4086;54.412;9.980;2022-12-08T04:04:09;0.53;;;0.53;;
8086;SDS011;4086;54.412;9.980;2022-12-08T04:06:35;0.50;;;0.50;;
8086;SDS011;4086;54.412;9.980;2022-12-08T04:09:02;1.63;;;0.77;;
8086;SDS011;4086;54.412;9.980;2022-12-08T04:11:30;1.50;;;0.90;;
8086;SDS011;4086;54.412;9.980;2022-12-08T04:13:56;1.90;;;0.97;;
8086;SDS011;4086;54.412;9.980;2022-12-08T04:16:23;1.47;;;0.70;;
8086;SDS011;4086;54.412;9.980;2022-12-08T04:18:50;1.90;;;0.97;;
8086;SDS011;4086;54.412;9.980;2022-12-08T04:21:17;0.73;;;0.73;;
8086;SDS011;4086;54.412;9.980;2022-12-08T04:23:43;2.07;;;1.00;;
8086;SDS011;4086;54.412;9.980;2022-12-08T04:26:10;0.80;;;0.80;;
8086;SDS011;4086;54.412;9.980;2022-12-08T04:28:38;0.80;;;0.80;;
8086;SDS011;4086;54.412;9.980;2022-12-08T04:31:05;2.23;;;0.90;;
8086;SDS011;4086;54.412;9.980;2022-12-08T04:33:31;0.97;;;0.80;;
8086;SDS011;4086;54.412;9.980;2022-12-08T04:35:59;0.90;;;0.90;;
8086;SDS011;4086;54.412;9.980;2022-12-08T04:38:25;0.80;;;0.70;;
8086;SDS011;4086;54.412;9.980;2022-12-08T04:40:52;1.10;;;1.00;;
8086;SDS011;4086;54.412;9.980;2022-12-08T04:43:18;0.93;;;0.93;;
8086;SDS011;4086;54.412;9.980;2022-12-08T04:45:46;1.43;;;1.30;;
8086;SDS011;4086;54.412;9.980;2022-12-08T04:48:13;1.30;;;1.10;;
8086;SDS011;4086;54.412;9.980;2022-12-08T04:50:40;1.83;;;1.20;;
8086;SDS011;4086;54.412;9.980;2022-12-08T04:53:07;1.00;;;1.00;;
8086;SDS011;4086;54.412;9.980;2022-12-08T04:55:36;1.20;;;1.10;;
8086;SDS011;4086;54.412;9.980;2022-12-08T04:58:03;1.97;;;1.60;;
8086;SDS011;4086;54.412;9.980;2022-12-08T05:00:29;1.53;;;1.27;;
8086;SDS011;4086;54.412;9.980;2022-12-08T05:02:57;1.27;;;1.20;;
8086;SDS011;4086;54.412;9.980;2022-12-08T05:05:23;1.50;;;1.40;;
8086;SDS011;4086;54.412;9.980;2022-12-08T05:07:50;1.33;;;1.30;;
8086;SDS011;4086;54.412;9.980;2022-12-08T05:10:16;1.30;;;1.17;;
8086;SDS011;4086;54.412;9.980;2022-12-08T05:12:42;1.40;;;1.30;;
8086;SDS011;4086;54.412;9.980;2022-12-08T05:15:09;1.20;;;1.20;;
8086;SDS011;4086;54.412;9.980;2022-12-08T05:17:35;1.70;;;1.40;;
8086;SDS011;4086;54.412;9.980;2022-12-08T05:20:03;1.80;;;1.70;;
8086;SDS011;4086;54.412;9.980;2022-12-08T05:22:32;1.53;;;1.40;;
8086;SDS011;4086;54.412;9.980;2022-12-08T05:24:59;1.60;;;1.50;;
8086;SDS011;4086;54.412;9.980;2022-12-08T05:27:25;1.83;;;1.73;;
8086;SDS011;4086;54.412;9.980;2022-12-08T05:29:51;1.50;;;1.40;;
8086;SDS011;4086;54.412;9.980;2022-12-08T05:32:18;1.80;;;1.53;;
8086;SDS011;4086;54.412;9.980;2022-12-08T05:34:44;1.47;;;1.33;;
8086;SDS011;4086;54.412;9.980;2022-12-08T05:37:12;1.60;;;1.50;;
8086;SDS011;4086;54.412;9.980;2022-12-08T05:39:38;1.60;;;1.50;;
8086;SDS011;4086;54.412;9.980;2022-12-08T05:42:04;2.00;;;1.70;;
8086;SDS011;4086;54.412;9.980;2022-12-08T05:44:31;1.90;;;1.70;;
8086;SDS011;4086;54.412;9.980;2022-12-08T05:46:57;1.70;;;1.60;;
8086;SDS011;4086;54.412;9.980;2022-12-08T05:49:23;2.20;;;1.90;;
8086;SDS011;4086;54.412;9.980;2022-12-08T05:51:51;2.07;;;1.90;;
8086;SDS011;4086;54.412;9.980;2022-12-08T05:54:18;1.93;;;1.83;;
8086;SDS011;4086;54.412;9.980;2022-12-08T05:56:45;3.20;;;2.00;;
8086;SDS011;4086;54.412;9.980;2022-12-08T05:59:11;2.60;;;1.80;;
8086;SDS011;4086;54.412;9.980;2022-12-08T06:01:37;2.07;;;1.97;;
8086;SDS011;4086;54.412;9.980;2022-12-08T06:04:04;1.83;;;1.73;;
8086;SDS011;4086;54.412;9.980;2022-12-08T06:06:30;2.00;;;1.80;;
8086;SDS011;4086;54.412;9.980;2022-12-08T06:09:00;2.10;;;1.50;;
8086;SDS011;4086;54.412;9.980;2022-12-08T06:11:29;5.53;;;2.17;;
8086;SDS011;4086;54.412;9.980;2022-12-08T06:13:57;3.50;;;2.00;;
8086;SDS011;4086;54.412;9.980;2022-12-08T06:16:24;3.60;;;2.63;;
8086;SDS011;4086;54.412;9.980;2022-12-08T06:18:51;3.60;;;3.30;;
8086;SDS011;4086;54.412;9.980;2022-12-08T06:21:17;3.47;;;2.90;;
8086;SDS011;4086;54.412;9.980;2022-12-08T06:23:46;3.80;;;3.50;;
8086;SDS011;4086;54.412;9.980;2022-12-08T06:26:13;5.13;;;4.63;;
8086;SDS011;4086;54.412;9.980;2022-12-08T06:28:42;5.90;;;5.30;;
8086;SDS011;4086;54.412;9.980;2022-12-08T06:31:09;6.23;;;5.63;;
8086;SDS011;4086;54.412;9.980;2022-12-08T06:33:36;8.20;;;6.37;;
8086;SDS011;4086;54.412;9.980;2022-12-08T06:36:03;7.23;;;6.07;;
8086;SDS011;4086;54.412;9.980;2022-12-08T06:38:30;8.03;;;5.30;;
8086;SDS011;4086;54.412;9.980;2022-12-08T06:40:57;3.90;;;3.50;;
8086;SDS011;4086;54.412;9.980;2022-12-08T06:43:24;3.60;;;3.30;;
8086;SDS011;4086;54.412;9.980;2022-12-08T06:45:52;3.73;;;3.30;;
8086;SDS011;4086;54.412;9.980;2022-12-08T06:48:18;4.33;;;3.33;;
8086;SDS011;4086;54.412;9.980;2022-12-08T06:50:45;4.03;;;3.17;;
8086;SDS011;4086;54.412;9.980;2022-12-08T06:53:11;4.20;;;3.20;;
8086;SDS011;4086;54.412;9.980;2022-12-08T06:55:41;4.73;;;3.30;;
8086;SDS011;4086;54.412;9.980;2022-12-08T06:58:09;3.30;;;2.87;;
8086;SDS011;4086;54.412;9.980;2022-12-08T07:00:35;4.97;;;3.60;;
8086;SDS011;4086;54.412;9.980;2022-12-08T07:03:03;5.47;;;3.70;;
8086;SDS011;4086;54.412;9.980;2022-12-08T07:05:29;4.50;;;3.33;;
8086;SDS011;4086;54.412;9.980;2022-12-08T07:07:56;5.93;;;5.00;;
8086;SDS011;4086;54.412;9.980;2022-12-08T07:10:22;7.33;;;4.20;;
8086;SDS011;4086;54.412;9.980;2022-12-08T07:12:48;5.10;;;4.30;;
8086;SDS011;4086;54.412;9.980;2022-12-08T07:15:15;5.37;;;4.27;;
8086;SDS011;4086;54.412;9.980;2022-12-08T07:17:41;7.43;;;5.10;;
8086;SDS011;4086;54.412;9.980;2022-12-08T07:20:09;6.67;;;4.97;;
8086;SDS011;4086;54.412;9.980;2022-12-08T07:22:36;5.80;;;4.60;;
8086;SDS011;4086;54.412;9.980;2022-12-08T07:25:02;6.97;;;5.33;;
8086;SDS011;4086;54.412;9.980;2022-12-08T07:27:29;17.07;;;11.10;;
8086;SDS011;4086;54.412;9.980;2022-12-08T07:29:55;16.53;;;12.03;;
8086;SDS011;4086;54.412;9.980;2022-12-08T07:32:21;16.33;;;11.50;;
8086;SDS011;4086;54.412;9.980;2022-12-08T07:34:48;15.40;;;11.07;;
8086;SDS011;4086;54.412;9.980;2022-12-08T07:37:16;17.33;;;11.07;;
8086;SDS011;4086;54.412;9.980;2022-12-08T07:39:42;16.93;;;12.03;;
8086;SDS011;4086;54.412;9.980;2022-12-08T07:42:09;16.40;;;10.90;;
8086;SDS011;4086;54.412;9.980;2022-12-08T07:44:35;16.37;;;10.83;;
8086;SDS011;4086;54.412;9.980;2022-12-08T07:47:01;16.73;;;10.33;;
8086;SDS011;4086;54.412;9.980;2022-12-08T07:49:28;12.00;;;8.40;;
8086;SDS011;4086;54.412;9.980;2022-12-08T07:51:54;9.97;;;7.10;;
8086;SDS011;4086;54.412;9.980;2022-12-08T07:54:22;13.17;;;8.23;;
8086;SDS011;4086;54.412;9.980;2022-12-08T07:56:48;9.83;;;7.20;;
8086;SDS011;4086;54.412;9.980;2022-12-08T07:59:15;10.43;;;6.80;;
8086;SDS011;4086;54.412;9.980;2022-12-08T08:01:41;11.57;;;7.57;;
8086;SDS011;4086;54.412;9.980;2022-12-08T08:04:08;12.00;;;7.37;;
8086;SDS011;4086;54.412;9.980;2022-12-08T08:06:35;8.80;;;6.03;;
8086;SDS011;4086;54.412;9.980;2022-12-08T08:09:01;9.50;;;6.07;;
8086;SDS011;4086;54.412;9.980;2022-12-08T08:11:29;9.00;;;6.20;;
8086;SDS011;4086;54.412;9.980;2022-12-08T08:13:56;8.63;;;5.37;;
8086;SDS011;4086;54.412;9.980;2022-12-08T08:16:23;7.53;;;5.50;;
8086;SDS011;4086;54.412;9.980;2022-12-08T08:18:49;9.03;;;5.33;;
8086;SDS011;4086;54.412;9.980;2022-12-08T08:21:16;7.77;;;5.50;;
8086;SDS011;4086;54.412;9.980;2022-12-08T08:23:43;8.50;;;5.93;;
8086;SDS011;4086;54.412;9.980;2022-12-08T08:26:09;9.37;;;5.83;;
8086;SDS011;4086;54.412;9.980;2022-12-08T08:28:37;8.73;;;5.97;;
8086;SDS011;4086;54.412;9.980;2022-12-08T08:31:03;9.70;;;5.90;;
8086;SDS011;4086;54.412;9.980;2022-12-08T08:33:30;8.20;;;5.97;;
8086;SDS011;4086;54.412;9.980;2022-12-08T08:35:57;9.60;;;5.97;;
8086;SDS011;4086;54.412;9.980;2022-12-08T08:38:23;10.47;;;5.47;;
8086;SDS011;4086;54.412;9.980;2022-12-08T08:40:50;6.10;;;4.80;;
8086;SDS011;4086;54.412;9.980;2022-12-08T08:43:17;7.97;;;5.10;;
8086;SDS011;4086;54.412;9.980;2022-12-08T08:45:55;8.73;;;5.30;;
8086;SDS011;4086;54.412;9.980;2022-12-08T08:48:23;6.80;;;4.80;;
8086;SDS011;4086;54.412;9.980;2022-12-08T08:50:49;7.67;;;4.77;;
8086;SDS011;4086;54.412;9.980;2022-12-08T08:53:15;7.83;;;5.00;;
8086;SDS011;4086;54.412;9.980;2022-12-08T08:55:42;8.77;;;5.03;;
8086;SDS011;4086;54.412;9.980;2022-12-08T08:58:08;6.37;;;4.67;;
8086;SDS011;4086;54.412;9.980;2022-12-08T09:00:35;5.30;;;4.33;;
8086;SDS011;4086;54.412;9.980;2022-12-08T09:03:02;6.33;;;4.77;;
8086;SDS011;4086;54.412;9.980;2022-12-08T09:05:29;5.60;;;4.70;;
8086;SDS011;4086;54.412;9.980;2022-12-08T09:07:55;6.30;;;4.17;;
8086;SDS011;4086;54.412;9.980;2022-12-08T09:10:22;5.73;;;4.30;;
8086;SDS011;4086;54.412;9.980;2022-12-08T09:12:48;5.40;;;4.37;;
8086;SDS011;4086;54.412;9.980;2022-12-08T09:15:14;5.93;;;3.93;;
8086;SDS011;4086;54.412;9.980;2022-12-08T09:17:41;7.10;;;4.50;;
8086;SDS011;4086;54.412;9.980;2022-12-08T09:20:09;5.50;;;4.10;;
8086;SDS011;4086;54.412;9.980;2022-12-08T09:22:35;5.37;;;4.10;;
8086;SDS011;4086;54.412;9.980;2022-12-08T09:25:02;4.43;;;3.90;;
8086;SDS011;4086;54.412;9.980;2022-12-08T09:27:28;6.40;;;5.20;;
8086;SDS011;4086;54.412;9.980;2022-12-08T09:29:55;7.83;;;6.40;;
8086;SDS011;4086;54.412;9.980;2022-12-08T09:32:22;8.37;;;6.70;;
8086;SDS011;4086;54.412;9.980;2022-12-08T09:34:48;7.53;;;5.60;;
8086;SDS011;4086;54.412;9.980;2022-12-08T09:37:16;6.70;;;5.53;;
8086;SDS011;4086;54.412;9.980;2022-12-08T09:39:43;7.17;;;4.63;;
8086;SDS011;4086;54.412;9.980;2022-12-08T09:42:09;5.47;;;4.33;;
8086;SDS011;4086;54.412;9.980;2022-12-08T09:47:23;5.70;;;4.30;;
8086;SDS011;4086;54.412;9.980;2022-12-08T09:49:52;4.87;;;4.27;;
8086;SDS011;4086;54.412;9.980;2022-12-08T09:52:24;5.43;;;4.43;;
8086;SDS011;4086;54.412;9.980;2022-12-08T09:54:53;6.63;;;4.80;;
8086;SDS011;4086;54.412;9.980;2022-12-08T09:57:21;6.07;;;4.43;;
8086;SDS011;4086;54.412;9.980;2022-12-08T09:59:50;4.83;;;3.73;;
8086;SDS011;4086;54.412;9.980;2022-12-08T10:02:19;3.90;;;3.50;;
8086;SDS011;4086;54.412;9.980;2022-12-08T10:04:47;4.10;;;3.70;;
8086;SDS011;4086;54.412;9.980;2022-12-08T10:07:15;4.17;;;3.30;;
8086;SDS011;4086;54.412;9.980;2022-12-08T10:09:47;3.47;;;3.17;;
8086;SDS011;4086;54.412;9.980;2022-12-08T10:12:16;3.57;;;2.53;;
8086;SDS011;4086;54.412;9.980;2022-12-08T10:14:46;3.00;;;2.70;;
8086;SDS011;4086;54.412;9.980;2022-12-08T10:17:15;2.70;;;2.50;;
8086;SDS011;4086;54.412;9.980;2022-12-08T10:19:43;2.90;;;2.40;;
8086;SDS011;4086;54.412;9.980;2022-12-08T10:22:11;3.30;;;3.00;;
8086;SDS011;4086;54.412;9.980;2022-12-08T10:24:42;3.87;;;2.80;;
8086;SDS011;4086;54.412;9.980;2022-12-08T10:27:17;3.20;;;2.90;;
8086;SDS011;4086;54.412;9.980;2022-12-08T10:29:45;2.20;;;2.10;;
8086;SDS011;4086;54.412;9.980;2022-12-08T10:32:12;3.00;;;2.70;;
8086;SDS011;4086;54.412;9.980;2022-12-08T10:37:23;2.70;;;2.50;;
8086;SDS011;4086;54.412;9.980;2022-12-08T10:39:56;2.10;;;2.00;;
8086;SDS011;4086;54.412;9.980;2022-12-08T10:42:24;3.63;;;2.80;;
8086;SDS011;4086;54.412;9.980;2022-12-08T10:44:59;2.30;;;2.10;;
8086;SDS011;4086;54.412;9.980;2022-12-08T10:47:34;2.10;;;2.00;;
8086;SDS011;4086;54.412;9.980;2022-12-08T10:50:06;3.43;;;2.50;;
8086;SDS011;4086;54.412;9.980;2022-12-08T10:52:36;2.60;;;2.40;;
8086;SDS011;4086;54.412;9.980;2022-12-08T10:55:11;3.03;;;2.73;;
8086;SDS011;4086;54.412;9.980;2022-12-08T10:57:38;2.93;;;2.63;;
8086;SDS011;4086;54.412;9.980;2022-12-08T11:00:05;2.90;;;2.60;;
8086;SDS011;4086;54.412;9.980;2022-12-08T11:02:34;3.50;;;3.10;;
8086;SDS011;4086;54.412;9.980;2022-12-08T11:05:01;2.67;;;2.47;;
8086;SDS011;4086;54.412;9.980;2022-12-08T11:07:27;2.97;;;2.30;;
8086;SDS011;4086;54.412;9.980;2022-12-08T11:09:54;2.67;;;2.43;;
8086;SDS011;4086;54.412;9.980;2022-12-08T11:12:25;3.87;;;2.67;;
8086;SDS011;4086;54.412;9.980;2022-12-08T11:14:54;3.10;;;2.43;;
8086;SDS011;4086;54.412;9.980;2022-12-08T11:17:23;3.13;;;2.33;;
8086;SDS011;4086;54.412;9.980;2022-12-08T11:19:56;2.57;;;2.37;;
8086;SDS011;4086;54.412;9.980;2022-12-08T11:22:24;2.53;;;2.33;;
8086;SDS011;4086;54.412;9.980;2022-12-08T11:25:01;2.73;;;2.53;;
8086;SDS011;4086;54.412;9.980;2022-12-08T11:27:35;3.30;;;2.67;;
8086;SDS011;4086;54.412;9.980;2022-12-08T11:30:05;2.33;;;2.13;;
8086;SDS011;4086;54.412;9.980;2022-12-08T11:32:39;2.30;;;2.10;;
8086;SDS011;4086;54.412;9.980;2022-12-08T11:35:07;2.97;;;2.00;;
8086;SDS011;4086;54.412;9.980;2022-12-08T11:37:40;2.27;;;2.07;;
8086;SDS011;4086;54.412;9.980;2022-12-08T11:40:09;2.50;;;2.20;;
8086;SDS011;4086;54.412;9.980;2022-12-08T11:42:46;2.63;;;2.43;;
8086;SDS011;4086;54.412;9.980;2022-12-08T11:45:19;2.37;;;2.10;;
8086;SDS011;4086;54.412;9.980;2022-12-08T11:47:51;2.90;;;2.30;;
8086;SDS011;4086;54.412;9.980;2022-12-08T11:50:23;2.30;;;2.20;;
8086;SDS011;4086;54.412;9.980;2022-12-08T11:52:51;3.77;;;2.53;;
8086;SDS011;4086;54.412;9.980;2022-12-08T11:55:27;2.37;;;2.13;;
8086;SDS011;4086;54.412;9.980;2022-12-08T11:57:57;2.90;;;2.33;;
8086;SDS011;4086;54.412;9.980;2022-12-08T12:00:29;2.57;;;2.27;;
8086;SDS011;4086;54.412;9.980;2022-12-08T12:02:57;5.30;;;2.93;;
8086;SDS011;4086;54.412;9.980;2022-12-08T12:05:28;2.63;;;2.43;;
8086;SDS011;4086;54.412;9.980;2022-12-08T12:08:02;2.30;;;2.20;;
8086;SDS011;4086;54.412;9.980;2022-12-08T12:10:38;4.13;;;3.73;;
8086;SDS011;4086;54.412;9.980;2022-12-08T12:13:24;4.13;;;3.73;;
8086;SDS011;4086;54.412;9.980;2022-12-08T12:16:10;6.63;;;4.87;;
8086;SDS011;4086;54.412;9.980;2022-12-08T12:19:00;4.37;;;3.90;;
8086;SDS011;4086;54.412;9.980;2022-12-08T12:21:30;5.30;;;4.63;;
8086;SDS011;4086;54.412;9.980;2022-12-08T12:23:59;5.77;;;4.53;;
8086;SDS011;4086;54.412;9.980;2022-12-08T12:26:29;5.80;;;5.20;;
8086;SDS011;4086;54.412;9.980;2022-12-08T12:29:01;6.90;;;5.10;;
8086;SDS011;4086;54.412;9.980;2022-12-08T12:31:30;7.07;;;5.87;;
8086;SDS011;4086;54.412;9.980;2022-12-08T12:34:03;8.70;;;6.20;;
8086;SDS011;4086;54.412;9.980;2022-12-08T12:36:31;9.20;;;6.90;;
8086;SDS011;4086;54.412;9.980;2022-12-08T12:39:10;7.23;;;5.73;;
8086;SDS011;4086;54.412;9.980;2022-12-08T12:41:41;7.67;;;5.90;;
8086;SDS011;4086;54.412;9.980;2022-12-08T12:44:36;7.77;;;5.87;;
8086;SDS011;4086;54.412;9.980;2022-12-08T12:47:05;9.93;;;6.73;;
8086;SDS011;4086;54.412;9.980;2022-12-08T12:49:52;9.27;;;6.60;;
8086;SDS011;4086;54.412;9.980;2022-12-08T12:52:38;8.03;;;5.97;;
8086;SDS011;4086;54.412;9.980;2022-12-08T12:55:18;11.77;;;7.10;;
8086;SDS011;4086;54.412;9.980;2022-12-08T12:58:14;9.30;;;6.67;;
8086;SDS011;4086;54.412;9.980;2022-12-08T13:00:46;9.23;;;6.70;;
8086;SDS011;4086;54.412;9.980;2022-12-08T13:03:13;12.33;;;7.37;;
8086;SDS011;4086;54.412;9.980;2022-12-08T13:05:44;10.43;;;6.80;;
8086;SDS011;4086;54.412;9.980;2022-12-08T13:08:15;15.57;;;6.87;;
8086;SDS011;4086;54.412;9.980;2022-12-08T13:10:46;21.57;;;8.20;;
8086;SDS011;4086;54.412;9.980;2022-12-08T13:13:26;14.70;;;7.50;;
8086;SDS011;4086;54.412;9.980;2022-12-08T13:15:54;12.67;;;6.93;;
8086;SDS011;4086;54.412;9.980;2022-12-08T13:18:23;10.53;;;7.10;;
8086;SDS011;4086;54.412;9.980;2022-12-08T13:20:51;13.33;;;7.57;;
8086;SDS011;4086;54.412;9.980;2022-12-08T13:23:27;12.47;;;6.80;;
8086;SDS011;4086;54.412;9.980;2022-12-08T13:26:08;20.27;;;7.33;;
8086;SDS011;4086;54.412;9.980;2022-12-08T13:31:45;18.73;;;6.17;;
8086;SDS011;4086;54.412;9.980;2022-12-08T13:34:14;14.03;;;6.67;;
8086;SDS011;4086;54.412;9.980;2022-12-08T13:36:43;9.50;;;6.53;;
8086;SDS011;4086;54.412;9.980;2022-12-08T13:39:15;9.30;;;6.27;;
8086;SDS011;4086;54.412;9.980;2022-12-08T13:41:47;14.83;;;7.10;;
8086;SDS011;4086;54.412;9.980;2022-12-08T13:44:19;10.37;;;6.50;;
8086;SDS011;4086;54.412;9.980;2022-12-08T13:46:49;11.53;;;7.23;;
8086;SDS011;4086;54.412;9.980;2022-12-08T13:49:20;9.60;;;6.47;;
8086;SDS011;4086;54.412;9.980;2022-12-08T13:51:49;19.87;;;8.30;;
8086;SDS011;4086;54.412;9.980;2022-12-08T13:54:19;11.33;;;7.30;;
8086;SDS011;4086;54.412;9.980;2022-12-08T13:56:47;12.80;;;7.70;;
8086;SDS011;4086;54.412;9.980;2022-12-08T13:59:22;9.83;;;6.50;;
8086;SDS011;4086;54.412;9.980;2022-12-08T14:01:54;9.73;;;6.43;;
8086;SDS011;4086;54.412;9.980;2022-12-08T14:04:22;12.63;;;6.73;;
8086;SDS011;4086;54.412;9.980;2022-12-08T14:06:49;14.03;;;7.70;;
8086;SDS011;4086;54.412;9.980;2022-12-08T14:09:17;8.00;;;5.93;;
8086;SDS011;4086;54.412;9.980;2022-12-08T14:11:45;10.87;;;6.37;;
8086;SDS011;4086;54.412;9.980;2022-12-08T14:14:13;12.00;;;6.27;;
8086;SDS011;4086;54.412;9.980;2022-12-08T14:16:43;7.40;;;5.40;;
8086;SDS011;4086;54.412;9.980;2022-12-08T14:19:16;15.50;;;5.57;;
8086;SDS011;4086;54.412;9.980;2022-12-08T14:21:50;8.40;;;5.53;;
8086;SDS011;4086;54.412;9.980;2022-12-08T14:24:18;9.43;;;5.67;;
8086;SDS011;4086;54.412;9.980;2022-12-08T14:26:44;28.10;;;6.17;;
8086;SDS011;4086;54.412;9.980;2022-12-08T14:29:14;9.97;;;5.70;;
8086;SDS011;4086;54.412;9.980;2022-12-08T14:31:53;11.70;;;5.87;;
8086;SDS011;4086;54.412;9.980;2022-12-08T14:34:21;10.87;;;5.53;;
8086;SDS011;4086;54.412;9.980;2022-12-08T14:36:47;11.17;;;5.77;;
8086;SDS011;4086;54.412;9.980;2022-12-08T14:39:14;14.33;;;6.40;;
8086;SDS011;4086;54.412;9.980;2022-12-08T14:41:46;15.67;;;7.40;;
8086;SDS011;4086;54.412;9.980;2022-12-08T14:44:24;10.40;;;5.43;;
8086;SDS011;4086;54.412;9.980;2022-12-08T14:47:03;13.00;;;5.43;;
8086;SDS011;4086;54.412;9.980;2022-12-08T14:49:32;8.10;;;5.13;;
8086;SDS011;4086;54.412;9.980;2022-12-08T14:51:59;10.17;;;5.70;;
8086;SDS011;4086;54.412;9.980;2022-12-08T14:54:26;12.67;;;5.97;;
8086;SDS011;4086;54.412;9.980;2022-12-08T14:56:55;10.13;;;4.93;;
8086;SDS011;4086;54.412;9.980;2022-12-08T14:59:24;13.90;;;5.63;;
8086;SDS011;4086;54.412;9.980;2022-12-08T15:01:52;10.80;;;5.43;;
8086;SDS011;4086;54.412;9.980;2022-12-08T15:04:24;11.37;;;5.93;;
8086;SDS011;4086;54.412;9.980;2022-12-08T15:06:55;15.47;;;5.60;;
8086;SDS011;4086;54.412;9.980;2022-12-08T15:09:29;9.83;;;5.70;;
8086;SDS011;4086;54.412;9.980;2022-12-08T15:11:59;12.40;;;5.27;;
8086;SDS011;4086;54.412;9.980;2022-12-08T15:14:27;12.13;;;5.33;;
8086;SDS011;4086;54.412;9.980;2022-12-08T15:16:54;9.13;;;6.17;;
8086;SDS011;4086;54.412;9.980;2022-12-08T15:19:22;16.73;;;6.30;;
8086;SDS011;4086;54.412;9.980;2022-12-08T15:21:53;26.93;;;7.43;;
8086;SDS011;4086;54.412;9.980;2022-12-08T15:24:21;19.13;;;5.77;;
8086;SDS011;4086;54.412;9.980;2022-12-08T15:26:49;24.83;;;5.87;;
8086;SDS011;4086;54.412;9.980;2022-12-08T15:29:18;20.53;;;6.60;;
8086;SDS011;4086;54.412;9.980;2022-12-08T15:31:46;15.33;;;6.53;;
8086;SDS011;4086;54.412;9.980;2022-12-08T15:34:12;11.07;;;5.93;;
8086;SDS011;4086;54.412;9.980;2022-12-08T15:36:38;11.07;;;6.40;;